Time;durP1;ratioP1;P1;durP2;ratioP2;P2;SDS_P1;SDS_P2;PMS_P1;PMS_P2;Temp;Humidity;BMP_temperature;BMP_pressure;BME280_temperature;BME280_humidity;BME280_pressure;Samples;Min_cycle;Max_cycle;Signal;HPM_P1;HPM_P2
2023/05/03 00:00:25;;;;;;;0.90;0.60;;;4.30;99.90;;;;;;5109824;27;20494;-69
2023/05/03 00:02:52;;;;;;;0.43;0.43;;;4.30;99.90;;;;;;5130720;27;20043;-69
2023/05/03 00:05:21;;;;;;;0.63;0.50;;;4.20;99.90;;;;;;5130218;27;20103;-69
2023/05/03 00:07:47;;;;;;;1.05;0.63;;;4.20;99.90;;;;;;5130238;27;20052;-69
2023/05/03 00:10:16;;;;;;;0.40;0.40;;;4.20;99.90;;;;;;5096194;27;20047;-69
2023/05/03 00:12:43;;;;;;;0.70;0.55;;;4.20;99.90;;;;;;5096779;27;20054;-70
2023/05/03 00:15:09;;;;;;;;;;;4.20;99.90;;;;;;5113768;27;20068;-69
2023/05/03 00:17:36;;;;;;;0.60;0.60;;;4.20;99.90;;;;;;5110201;28;20076;-70
2023/05/03 00:20:03;;;;;;;0.85;0.68;;;4.30;99.90;;;;;;5109722;28;20123;-70
2023/05/03 00:22:29;;;;;;;1.52;0.75;;;4.30;99.90;;;;;;5109503;28;20039;-70
2023/05/03 00:24:55;;;;;;;2.20;1.13;;;4.40;99.90;;;;;;5131357;27;20050;-70
2023/05/03 00:27:22;;;;;;;1.60;1.10;;;4.40;99.90;;;;;;5113533;27;20474;-70
2023/05/03 00:29:50;;;;;;;1.23;1.00;;;4.50;99.90;;;;;;5131772;27;20042;-69
2023/05/03 00:32:16;;;;;;;1.40;1.10;;;4.60;99.90;;;;;;5127218;27;20031;-70
2023/05/03 00:34:41;;;;;;;1.70;1.20;;;4.60;99.90;;;;;;5150536;27;20050;-68
2023/05/03 00:37:08;;;;;;;1.73;1.23;;;4.60;99.90;;;;;;5147959;27;20042;-68
2023/05/03 00:39:33;;;;;;;;;;;4.70;99.90;;;;;;5130989;27;20396;-68
2023/05/03 00:42:00;;;;;;;1.70;1.20;;;4.80;99.90;;;;;;5129681;27;19927;-68
2023/05/03 00:44:26;;;;;;;2.13;1.65;;;4.90;99.90;;;;;;5130481;27;20043;-69
2023/05/03 00:46:53;;;;;;;1.92;1.27;;;5.00;99.90;;;;;;5129726;27;20043;-68
2023/05/03 00:49:19;;;;;;;1.60;1.17;;;5.00;99.90;;;;;;5113012;27;20097;-68
2023/05/03 00:51:44;;;;;;;2.13;1.20;;;5.10;99.90;;;;;;5141358;27;20051;-68
2023/05/03 00:54:11;;;;;;;1.30;1.15;;;5.20;99.90;;;;;;5133060;27;20046;-69
2023/05/03 00:56:38;;;;;;;2.10;1.30;;;5.20;99.90;;;;;;5123295;27;20039;-69
2023/05/03 00:59:05;;;;;;;1.20;0.88;;;5.20;99.90;;;;;;5134314;27;20044;-70
2023/05/03 01:01:31;;;;;;;1.50;1.00;;;5.30;99.90;;;;;;5133029;27;20068;-71
2023/05/03 01:04:01;;;;;;;1.38;0.80;;;5.30;99.90;;;;;;5124747;27;20045;-72
2023/05/03 01:06:57;;;;;;;1.10;0.80;;;5.30;99.90;;;;;;5126311;27;20155;-72
2023/05/03 01:09:53;;;;;;;0.82;0.70;;;5.40;99.90;;;;;;5116087;27;20149;-71
2023/05/03 01:13:00;;;;;;;0.80;0.70;;;5.40;99.90;;;;;;5118012;27;20043;-72
2023/05/03 01:15:57;;;;;;;1.10;0.70;;;5.50;99.90;;;;;;5119544;27;20053;-71
2023/05/03 01:18:29;;;;;;;1.13;0.60;;;5.50;99.90;;;;;;5117528;27;20126;-72
2023/05/03 01:20:58;;;;;;;1.58;0.88;;;5.50;99.90;;;;;;5111419;28;20047;-72
2023/05/03 01:23:45;;;;;;;1.10;0.80;;;5.50;99.90;;;;;;5121402;28;20158;-71
2023/05/03 01:26:18;;;;;;;0.80;0.60;;;5.60;99.90;;;;;;5137922;27;20049;-72
2023/05/03 01:28:44;;;;;;;0.90;0.60;;;5.50;99.90;;;;;;5134366;27;20039;-70
2023/05/03 01:31:11;;;;;;;0.73;0.60;;;5.50;99.90;;;;;;5131529;27;20046;-70
2023/05/03 01:33:46;;;;;;;0.57;0.50;;;5.50;99.90;;;;;;5137000;27;20053;-71
2023/05/03 01:36:34;;;;;;;0.85;0.60;;;5.40;99.90;;;;;;5106638;28;20375;-71
2023/05/03 01:39:06;;;;;;;0.90;0.60;;;5.40;99.90;;;;;;5118494;27;20032;-71
2023/05/03 01:41:34;;;;;;;0.50;0.50;;;5.40;99.90;;;;;;5127143;27;20036;-72
2023/05/03 01:44:02;;;;;;;0.40;0.40;;;5.30;99.90;;;;;;5135860;27;20033;-72
2023/05/03 01:46:28;;;;;;;0.38;0.38;;;5.30;99.90;;;;;;5121145;27;20051;-75
2023/05/03 01:48:53;;;;;;;0.50;0.40;;;5.30;99.90;;;;;;5130188;27;20560;-75
2023/05/03 01:51:19;;;;;;;0.68;0.55;;;5.30;99.90;;;;;;5129974;27;20067;-74
2023/05/03 01:53:45;;;;;;;0.50;0.50;;;5.30;99.90;;;;;;5115873;27;20078;-75
2023/05/03 01:56:10;;;;;;;0.73;0.50;;;5.40;99.90;;;;;;5127617;27;20059;-75
2023/05/03 01:58:36;;;;;;;0.40;0.40;;;5.30;99.90;;;;;;5117310;27;20035;-74
2023/05/03 02:01:04;;;;;;;0.50;0.50;;;5.30;99.90;;;;;;5131108;27;20031;-75
2023/05/03 02:03:30;;;;;;;0.57;0.47;;;5.30;99.90;;;;;;5130630;27;20031;-75
2023/05/03 02:05:56;;;;;;;0.50;0.32;;;5.20;99.90;;;;;;5116358;27;20058;-74
2023/05/03 02:08:22;;;;;;;0.30;0.30;;;5.20;99.90;;;;;;5094006;28;20040;-74
2023/05/03 02:10:47;;;;;;;0.73;0.52;;;5.20;99.90;;;;;;5115482;27;20143;-74
2023/05/03 02:13:13;;;;;;;0.80;0.60;;;5.10;99.90;;;;;;5124344;27;20051;-75
2023/05/03 02:15:40;;;;;;;0.40;0.40;;;5.00;99.90;;;;;;5121829;27;20047;-75
2023/05/03 02:18:07;;;;;;;0.88;0.30;;;5.00;99.90;;;;;;5125263;27;20072;-75
2023/05/03 02:20:36;;;;;;;0.50;0.47;;;5.00;99.90;;;;;;5132430;27;20046;-75
2023/05/03 02:23:05;;;;;;;0.50;0.47;;;4.90;99.90;;;;;;5132553;27;20074;-74
2023/05/03 02:25:31;;;;;;;0.85;0.40;;;4.90;99.90;;;;;;5132464;27;20039;-75
2023/05/03 02:27:57;;;;;;;0.50;0.40;;;4.80;99.90;;;;;;5151436;27;20467;-74
2023/05/03 02:30:22;;;;;;;0.40;0.30;;;4.80;99.90;;;;;;5129178;27;21063;-74
2023/05/03 02:32:48;;;;;;;0.70;0.30;;;4.80;99.90;;;;;;5115010;27;20532;-75
2023/05/03 02:35:14;;;;;;;0.90;0.52;;;4.80;99.90;;;;;;5143464;27;20114;-74
2023/05/03 02:37:39;;;;;;;0.40;0.40;;;4.70;99.90;;;;;;5115189;27;20093;-75
2023/05/03 02:40:06;;;;;;;0.32;0.30;;;4.70;99.90;;;;;;5119643;27;20480;-75
2023/05/03 02:42:31;;;;;;;;;;;4.70;99.90;;;;;;5132276;27;20050;-74
2023/05/03 02:44:57;;;;;;;0.65;0.45;;;4.70;99.90;;;;;;5122800;27;19922;-75
2023/05/03 02:47:23;;;;;;;1.02;0.80;;;4.70;99.90;;;;;;5109513;27;20452;-75
2023/05/03 02:49:49;;;;;;;0.73;0.60;;;4.70;99.90;;;;;;5116667;27;20055;-74
2023/05/03 02:52:14;;;;;;;1.35;0.70;;;4.70;99.90;;;;;;5131759;27;20466;-74
2023/05/03 02:54:40;;;;;;;0.40;0.40;;;4.70;99.90;;;;;;5137223;27;20043;-74
2023/05/03 02:57:06;;;;;;;0.60;0.50;;;4.70;99.90;;;;;;5138696;27;20058;-74
2023/05/03 02:59:32;;;;;;;0.40;0.30;;;4.70;99.90;;;;;;5144821;27;20038;-75
2023/05/03 03:01:58;;;;;;;0.30;0.30;;;4.70;99.90;;;;;;5149526;27;20043;-75
2023/05/03 03:04:24;;;;;;;0.60;0.38;;;4.70;99.90;;;;;;5122403;27;20136;-75
2023/05/03 03:06:52;;;;;;;0.52;0.40;;;4.80;99.90;;;;;;5150454;27;20046;-74
2023/05/03 03:09:18;;;;;;;0.30;0.30;;;4.80;99.90;;;;;;5150961;27;20058;-75
2023/05/03 03:11:44;;;;;;;0.82;0.40;;;4.80;99.90;;;;;;5115755;27;20038;-75
2023/05/03 03:14:10;;;;;;;0.40;0.40;;;4.90;99.90;;;;;;5131475;27;20050;-74
2023/05/03 03:16:36;;;;;;;0.50;0.40;;;4.90;99.90;;;;;;5150732;27;20047;-75
2023/05/03 03:19:02;;;;;;;0.32;0.32;;;4.90;99.90;;;;;;5134883;27;20035;-74
2023/05/03 03:21:28;;;;;;;0.35;0.22;;;4.90;99.90;;;;;;5110813;27;20512;-75
2023/05/03 03:23:55;;;;;;;0.40;0.30;;;4.90;99.90;;;;;;5111035;28;20047;-75
2023/05/03 03:26:21;;;;;;;0.30;0.30;;;4.90;99.90;;;;;;5133101;27;20039;-75
2023/05/03 03:28:46;;;;;;;0.30;0.30;;;4.90;99.90;;;;;;5134149;27;20379;-75
2023/05/03 03:31:12;;;;;;;0.50;0.40;;;4.90;99.90;;;;;;5135563;27;20043;-74
2023/05/03 03:33:38;;;;;;;0.55;0.28;;;4.90;99.90;;;;;;5113279;27;20039;-73
2023/05/03 03:36:06;;;;;;;0.45;0.28;;;4.90;99.90;;;;;;5127101;27;20031;-74
2023/05/03 03:38:32;;;;;;;0.38;0.30;;;4.90;99.90;;;;;;5129504;27;20393;-75
2023/05/03 03:40:58;;;;;;;0.20;0.20;;;4.80;99.90;;;;;;5133103;27;20103;-74
2023/05/03 03:43:23;;;;;;;0.22;0.22;;;4.80;99.90;;;;;;5131197;27;20050;-74
2023/05/03 03:45:49;;;;;;;0.70;0.30;;;4.80;99.90;;;;;;5133074;27;20047;-74
2023/05/03 03:48:15;;;;;;;0.20;0.20;;;4.80;99.90;;;;;;5140647;27;20133;-75
2023/05/03 03:50:41;;;;;;;0.32;0.30;;;4.80;99.90;;;;;;5115282;27;20042;-70
2023/05/03 03:53:09;;;;;;;0.50;0.30;;;4.70;99.90;;;;;;5143241;27;20546;-70
2023/05/03 03:55:35;;;;;;;0.28;0.22;;;4.70;99.90;;;;;;5103355;27;20027;-70
2023/05/03 03:58:01;;;;;;;0.25;0.25;;;4.60;99.90;;;;;;5135882;27;20114;-70
2023/05/03 04:00:27;;;;;;;0.22;0.20;;;4.60;99.90;;;;;;5130251;27;20047;-74
2023/05/03 04:02:53;;;;;;;0.70;0.20;;;4.60;99.90;;;;;;5130041;27;20176;-74
2023/05/03 04:05:18;;;;;;;0.43;0.20;;;4.50;99.90;;;;;;5113168;27;20118;-74
2023/05/03 04:07:44;;;;;;;0.20;0.20;;;4.50;99.90;;;;;;5129754;27;20043;-74
2023/05/03 04:10:10;;;;;;;0.20;0.20;;;4.50;99.90;;;;;;5129979;27;20043;-73
2023/05/03 04:12:36;;;;;;;0.60;0.30;;;4.50;99.90;;;;;;5101756;27;20055;-74
2023/05/03 04:15:03;;;;;;;0.38;0.38;;;4.50;99.90;;;;;;5129916;27;20047;-75
2023/05/03 04:17:29;;;;;;;0.22;0.20;;;4.50;99.90;;;;;;5129986;27;20046;-74
2023/05/03 04:19:54;;;;;;;0.25;0.10;;;4.50;99.90;;;;;;5112575;27;20050;-74
2023/05/03 04:22:20;;;;;;;0.32;0.20;;;4.50;99.90;;;;;;5129815;27;20092;-75
2023/05/03 04:24:46;;;;;;;0.20;0.20;;;4.60;99.90;;;;;;5129886;27;20046;-75
2023/05/03 04:27:13;;;;;;;0.20;0.20;;;4.70;99.90;;;;;;5129725;27;20043;-74
2023/05/03 04:29:39;;;;;;;0.10;0.10;;;4.70;99.90;;;;;;5132641;27;20052;-74
2023/05/03 04:32:06;;;;;;;0.05;0.05;;;4.80;99.90;;;;;;5135286;27;20474;-74
2023/05/03 04:34:32;;;;;;;0.10;0.10;;;4.80;99.90;;;;;;5131016;27;20031;-74
2023/05/03 04:36:59;;;;;;;0.10;0.10;;;4.90;99.90;;;;;;5132991;27;20053;-74
2023/05/03 04:39:25;;;;;;;0.45;0.20;;;4.90;99.90;;;;;;5114766;27;20097;-74
2023/05/03 04:41:51;;;;;;;0.30;0.20;;;5.00;99.90;;;;;;5123321;27;20043;-74
2023/05/03 04:44:16;;;;;;;0.20;0.20;;;5.10;99.90;;;;;;5118420;27;20344;-74
2023/05/03 04:46:42;;;;;;;0.30;0.25;;;5.20;99.90;;;;;;5118176;27;20147;-74
2023/05/03 04:49:08;;;;;;;0.30;0.10;;;5.30;99.90;;;;;;5120916;27;20114;-76
2023/05/03 04:51:33;;;;;;;0.20;0.20;;;5.30;99.90;;;;;;5133235;27;20104;-74
2023/05/03 04:53:59;;;;;;;0.20;0.20;;;5.40;99.90;;;;;;5121572;27;20095;-73
2023/05/03 04:56:25;;;;;;;0.10;0.10;;;5.50;99.90;;;;;;5114779;27;20040;-74
2023/05/03 04:58:53;;;;;;;0.30;0.20;;;5.60;99.90;;;;;;5101949;28;20356;-74
2023/05/03 05:01:25;;;;;;;0.10;0.10;;;5.70;99.90;;;;;;5106979;28;20042;-73
2023/05/03 05:03:52;;;;;;;0.70;0.30;;;5.80;99.90;;;;;;5124708;27;20031;-73
2023/05/03 05:06:17;;;;;;;0.77;0.30;;;5.90;99.90;;;;;;5128278;27;20091;-73
2023/05/03 05:08:43;;;;;;;0.30;0.30;;;6.00;99.90;;;;;;5120056;27;20044;-74
2023/05/03 05:11:09;;;;;;;2.53;0.90;;;6.10;99.90;;;;;;5104903;27;20456;-74
2023/05/03 05:13:35;;;;;;;0.80;0.50;;;6.20;99.90;;;;;;5132832;27;20046;-73
2023/05/03 05:16:01;;;;;;;0.43;0.40;;;6.30;99.90;;;;;;5139818;27;20039;-73
2023/05/03 05:18:26;;;;;;;0.63;0.40;;;6.40;99.90;;;;;;5112509;27;20054;-73
2023/05/03 05:20:52;;;;;;;0.73;0.50;;;6.40;99.90;;;;;;5130399;27;20843;-73
2023/05/03 05:23:18;;;;;;;0.43;0.32;;;6.60;99.90;;;;;;5123443;27;20558;-73
2023/05/03 05:25:44;;;;;;;0.80;0.30;;;6.70;99.90;;;;;;5119574;27;20039;-74
2023/05/03 05:28:10;;;;;;;0.20;0.20;;;6.80;99.90;;;;;;5135633;27;20039;-74
2023/05/03 05:30:36;;;;;;;0.68;0.40;;;6.90;99.90;;;;;;5107258;27;20100;-73
2023/05/03 05:33:02;;;;;;;1.15;0.52;;;6.90;99.90;;;;;;5120918;27;20039;-71
2023/05/03 05:35:28;;;;;;;2.10;0.65;;;7.00;99.90;;;;;;5102495;27;20483;-71
2023/05/03 05:37:54;;;;;;;0.98;0.47;;;7.10;99.90;;;;;;5127110;27;20046;-71
2023/05/03 05:40:20;;;;;;;0.63;0.38;;;7.20;99.90;;;;;;5125756;27;20054;-71
2023/05/03 05:42:47;;;;;;;0.55;0.30;;;7.30;99.90;;;;;;5127633;27;20039;-71
2023/05/03 05:45:13;;;;;;;0.50;0.30;;;7.40;99.90;;;;;;5124198;27;20039;-71
2023/05/03 05:47:39;;;;;;;0.30;0.20;;;7.50;99.90;;;;;;5101538;27;20047;-68
2023/05/03 05:50:05;;;;;;;0.70;0.40;;;7.60;99.90;;;;;;5097489;27;20044;-67
2023/05/03 05:52:31;;;;;;;0.30;0.30;;;7.70;99.90;;;;;;5150602;27;20042;-68
2023/05/03 05:54:57;;;;;;;1.00;0.30;;;7.80;99.90;;;;;;5119928;27;20422;-68
2023/05/03 05:57:23;;;;;;;0.52;0.30;;;7.90;94.40;;;;;;5117666;27;20043;-68
2023/05/03 05:59:49;;;;;;;0.30;0.20;;;8.00;38.90;;;;;;5111757;27;20075;-68
2023/05/03 06:02:21;;;;;;;;;;;8.10;7.60;;;;;;5118007;27;20065;-68
2023/05/03 06:04:47;;;;;;;0.40;0.20;;;8.10;1.00;;;;;;5137256;27;19919;-70
2023/05/03 06:07:15;;;;;;;1.00;0.30;;;8.20;1.00;;;;;;5120482;27;20050;-69
2023/05/03 06:09:41;;;;;;;1.38;0.60;;;8.30;1.00;;;;;;5132361;27;20046;-69
2023/05/03 06:12:07;;;;;;;;;;;8.30;1.00;;;;;;5115962;27;20039;-69
2023/05/03 06:14:32;;;;;;;2.05;0.60;;;8.40;1.00;;;;;;5131741;27;19926;-69
2023/05/03 06:16:59;;;;;;;0.98;0.40;;;8.40;1.00;;;;;;5130667;27;20157;-68
2023/05/03 06:19:25;;;;;;;1.15;0.60;;;8.50;1.00;;;;;;5131873;27;20394;-68
2023/05/03 06:21:51;;;;;;;2.08;0.70;;;8.50;99.90;;;;;;5132345;27;20047;-68
2023/05/03 06:24:19;;;;;;;2.30;0.57;;;8.50;99.90;;;;;;5115469;27;20436;-68
2023/05/03 06:26:46;;;;;;;0.60;0.50;;;8.50;99.90;;;;;;5132188;27;20046;-68
2023/05/03 06:29:12;;;;;;;1.25;0.57;;;8.60;99.90;;;;;;5132431;27;20043;-68
2023/05/03 06:31:38;;;;;;;1.67;0.57;;;8.70;99.90;;;;;;5114844;27;20385;-68
2023/05/03 06:34:03;;;;;;;2.20;0.73;;;8.70;99.90;;;;;;5133824;27;20042;-68
2023/05/03 06:36:29;;;;;;;0.57;0.40;;;8.70;99.90;;;;;;5133208;27;20039;-68
2023/05/03 06:38:55;;;;;;;0.73;0.40;;;8.80;99.90;;;;;;5132324;27;20044;-68
2023/05/03 06:41:21;;;;;;;2.10;0.68;;;8.90;99.90;;;;;;5131815;27;20061;-68
2023/05/03 06:43:47;;;;;;;0.43;0.30;;;8.90;99.90;;;;;;5133384;27;20104;-68
2023/05/03 06:46:12;;;;;;;0.63;0.30;;;9.00;99.90;;;;;;5114646;27;20156;-68
2023/05/03 06:48:38;;;;;;;0.75;0.40;;;9.20;99.90;;;;;;5131886;27;20082;-68
2023/05/03 06:51:04;;;;;;;0.73;0.40;;;9.20;99.90;;;;;;5131558;27;20047;-68
2023/05/03 06:53:30;;;;;;;0.82;0.52;;;9.30;99.90;;;;;;5131661;27;20126;-68
2023/05/03 06:55:56;;;;;;;0.90;0.60;;;9.30;99.90;;;;;;5114444;27;20039;-68
2023/05/03 06:58:21;;;;;;;1.05;0.57;;;9.40;99.90;;;;;;5114566;27;20046;-68
2023/05/03 07:00:52;;;;;;;0.35;0.30;;;9.40;99.90;;;;;;5114592;27;20732;-69
2023/05/03 07:03:17;;;;;;;2.35;0.47;;;9.50;99.90;;;;;;5131308;27;20409;-70
2023/05/03 07:05:43;;;;;;;0.98;0.50;;;9.60;99.90;;;;;;5114245;27;20122;-69
2023/05/03 07:08:09;;;;;;;0.38;0.20;;;9.70;99.90;;;;;;5131393;27;20043;-69
2023/05/03 07:10:35;;;;;;;1.10;0.50;;;9.80;99.90;;;;;;5131191;27;20548;-69
2023/05/03 07:13:01;;;;;;;1.38;0.40;;;9.80;99.90;;;;;;5131591;27;20122;-69
2023/05/03 07:15:26;;;;;;;0.43;0.40;;;9.70;99.90;;;;;;5113961;27;20131;-69
2023/05/03 07:17:52;;;;;;;0.35;0.30;;;9.80;99.90;;;;;;5114046;27;20054;-69
2023/05/03 07:20:18;;;;;;;1.98;0.60;;;9.90;99.90;;;;;;5114098;27;20051;-69
2023/05/03 07:22:44;;;;;;;1.65;0.60;;;9.70;99.90;;;;;;5114179;27;20047;-69
2023/05/03 07:25:11;;;;;;;1.38;0.50;;;9.80;99.90;;;;;;5130951;27;20055;-69
2023/05/03 07:27:36;;;;;;;1.30;0.68;;;9.80;99.90;;;;;;5131100;27;20383;-69
2023/05/03 07:30:03;;;;;;;0.40;0.30;;;9.70;99.90;;;;;;5130900;27;20046;-71
2023/05/03 07:32:29;;;;;;;2.05;0.47;;;9.90;99.90;;;;;;5131263;27;20133;-69
2023/05/03 07:34:54;;;;;;;1.35;0.52;;;10.00;99.90;;;;;;5130965;27;20164;-69
2023/05/03 07:37:20;;;;;;;0.65;0.32;;;10.10;99.90;;;;;;5131244;27;20125;-69
2023/05/03 07:39:46;;;;;;;3.00;0.50;;;10.10;99.90;;;;;;5131078;27;20053;-69
2023/05/03 07:42:12;;;;;;;1.92;0.50;;;10.10;99.90;;;;;;5130016;27;20043;-69
2023/05/03 07:44:38;;;;;;;2.17;0.63;;;10.10;99.90;;;;;;5130875;27;20050;-71
2023/05/03 07:47:03;;;;;;;1.25;0.52;;;10.00;99.90;;;;;;5130732;27;20047;-69
2023/05/03 07:49:30;;;;;;;1.50;0.63;;;10.10;99.90;;;;;;5130601;27;20042;-68
2023/05/03 07:51:57;;;;;;;0.90;0.50;;;10.10;99.90;;;;;;5110004;27;20040;-69
2023/05/03 07:54:23;;;;;;;0.63;0.43;;;10.20;99.90;;;;;;5110007;28;20074;-69
2023/05/03 07:56:48;;;;;;;0.77;0.45;;;10.30;99.90;;;;;;5111694;28;20078;-69
2023/05/03 07:59:14;;;;;;;1.77;0.57;;;10.30;93.30;;;;;;5109951;28;20483;-69
2023/05/03 08:01:40;;;;;;;1.00;0.38;;;10.40;73.80;;;;;;5093265;28;20054;-69
2023/05/03 08:04:06;;;;;;;1.75;0.50;;;10.50;94.20;;;;;;5110092;28;20460;-70
2023/05/03 08:06:34;;;;;;;1.00;0.50;;;10.50;99.80;;;;;;5109691;28;20039;-69
2023/05/03 08:09:00;;;;;;;2.22;0.50;;;10.50;95.60;;;;;;5092865;28;20031;-69
2023/05/03 08:11:28;;;;;;;1.63;0.68;;;10.60;99.90;;;;;;5109503;28;20040;-69
2023/05/03 08:13:54;;;;;;;1.48;0.40;;;10.60;60.90;;;;;;5092572;28;20603;-69
2023/05/03 08:16:20;;;;;;;1.25;0.57;;;10.60;99.90;;;;;;5109631;28;20046;-69
2023/05/03 08:18:46;;;;;;;0.68;0.43;;;10.60;65.70;;;;;;5109769;28;20039;-69
2023/05/03 08:21:13;;;;;;;3.20;0.70;;;10.40;21.50;;;;;;5075652;28;20119;-68
2023/05/03 08:23:39;;;;;;;0.82;0.40;;;10.50;62.40;;;;;;5092727;28;20495;-69
2023/05/03 08:26:08;;;;;;;1.20;0.52;;;10.60;68.40;;;;;;5110736;28;20065;-69
2023/05/03 08:28:34;;;;;;;2.05;0.43;;;10.60;38.40;;;;;;5109511;28;20466;-69
2023/05/03 08:31:03;;;;;;;1.75;0.50;;;10.60;99.90;;;;;;5092550;28;20039;-68
2023/05/03 08:33:29;;;;;;;2.38;0.65;;;10.60;55.50;;;;;;5108674;28;20055;-69
2023/05/03 08:35:55;;;;;;;1.00;0.50;;;10.50;44.40;;;;;;5109571;28;20119;-68
2023/05/03 08:38:21;;;;;;;0.80;0.60;;;10.60;60.70;;;;;;5109443;28;20479;-68
2023/05/03 08:40:50;;;;;;;1.35;0.43;;;10.50;46.20;;;;;;5109634;28;20094;-68
2023/05/03 08:43:19;;;;;;;2.28;0.60;;;10.50;47.00;;;;;;5109323;28;20123;-68
2023/05/03 08:45:45;;;;;;;1.40;0.45;;;10.40;73.60;;;;;;5109644;28;20483;-68
2023/05/03 08:48:12;;;;;;;2.42;0.68;;;10.50;62.80;;;;;;5092335;28;20051;-68
2023/05/03 08:50:41;;;;;;;1.77;0.60;;;10.50;16.80;;;;;;5118720;28;20074;-68
2023/05/03 08:53:10;;;;;;;2.55;0.85;;;10.60;62.20;;;;;;5129760;27;20065;-68
2023/05/03 08:55:36;;;;;;;2.03;0.45;;;10.50;24.10;;;;;;5134413;27;20050;-68
2023/05/03 08:58:09;;;;;;;0.50;0.30;;;10.60;26.60;;;;;;5116734;27;20042;-68
2023/05/03 09:00:35;;;;;;;1.52;0.50;;;10.70;47.70;;;;;;5133738;27;20088;-68
2023/05/03 09:03:01;;;;;;;0.73;0.60;;;10.70;23.60;;;;;;5133972;27;20043;-68
2023/05/03 09:05:32;;;;;;;0.85;0.50;;;10.80;13.20;;;;;;5133616;27;20047;-68
2023/05/03 09:08:04;;;;;;;0.85;0.30;;;10.70;6.70;;;;;;5135117;27;20043;-68
2023/05/03 09:10:31;;;;;;;1.35;0.68;;;10.80;16.60;;;;;;5099767;27;20047;-68
2023/05/03 09:13:01;;;;;;;1.83;0.50;;;10.80;14.20;;;;;;5133847;27;20045;-71
2023/05/03 09:15:29;;;;;;;1.77;0.52;;;10.80;12.20;;;;;;5133185;27;20128;-71
2023/05/03 09:18:25;;;;;;;0.90;0.40;;;10.90;8.60;;;;;;5133377;27;20058;-72
2023/05/03 09:20:51;;;;;;;1.10;0.30;;;11.00;1.00;;;;;;5126228;27;20059;-71
2023/05/03 09:23:27;;;;;;;1.42;0.50;;;11.20;12.20;;;;;;5133487;27;20398;-72
2023/05/03 09:25:53;;;;;;;2.10;0.68;;;11.20;1.00;;;;;;5133672;27;20114;-72
2023/05/03 09:28:20;;;;;;;1.98;0.60;;;11.10;9.00;;;;;;5133358;27;20047;-71
2023/05/03 09:30:47;;;;;;;0.45;0.35;;;10.80;1.00;;;;;;5133063;27;20081;-72
2023/05/03 09:33:20;;;;;;;0.80;0.40;;;10.90;1.00;;;;;;5133281;27;20049;-71
2023/05/03 09:35:57;;;;;;;0.95;0.47;;;11.00;1.00;;;;;;5133181;27;20609;-72
2023/05/03 09:38:41;;;;;;;1.30;0.35;;;11.10;1.00;;;;;;5134827;27;20047;-72
2023/05/03 09:41:07;;;;;;;0.98;0.40;;;11.30;1.00;;;;;;5116276;27;20864;-72
2023/05/03 09:43:34;;;;;;;2.80;0.70;;;11.40;1.00;;;;;;5134851;27;20035;-72
2023/05/03 09:46:09;;;;;;;4.22;0.68;;;11.40;1.00;;;;;;5132809;27;20053;-72
2023/05/03 09:48:36;;;;;;;0.93;0.50;;;11.40;1.00;;;;;;5133117;27;20034;-71
2023/05/03 09:51:04;;;;;;;1.85;0.50;;;11.50;1.00;;;;;;5115514;27;20132;-72
2023/05/03 09:53:31;;;;;;;1.17;0.52;;;11.60;1.00;;;;;;5134394;27;20086;-71
2023/05/03 09:55:58;;;;;;;1.90;0.55;;;11.70;1.00;;;;;;5132935;27;20039;-72
2023/05/03 09:58:26;;;;;;;1.65;0.50;;;11.60;1.00;;;;;;5134454;27;20078;-72
2023/05/03 10:00:53;;;;;;;1.77;0.50;;;11.60;1.00;;;;;;5132919;27;20132;-72
2023/05/03 10:03:27;;;;;;;1.95;0.77;;;11.60;1.00;;;;;;5132580;27;20051;-72
2023/05/03 10:05:54;;;;;;;2.55;0.60;;;11.60;1.00;;;;;;5132339;27;20061;-72
2023/05/03 10:08:34;;;;;;;2.22;0.50;;;11.60;1.00;;;;;;5132626;27;20058;-72
2023/05/03 10:11:03;;;;;;;2.00;0.60;;;11.60;1.00;;;;;;5133846;27;20356;-72
2023/05/03 10:13:30;;;;;;;2.17;0.73;;;11.60;1.00;;;;;;5132288;27;20035;-71
2023/05/03 10:16:10;;;;;;;1.48;0.50;;;11.70;1.00;;;;;;5132488;27;20047;-71
2023/05/03 10:18:42;;;;;;;1.25;0.60;;;11.80;1.00;;;;;;5132675;27;20079;-71
2023/05/03 10:21:17;;;;;;;3.13;0.75;;;11.80;1.00;;;;;;5132311;27;20051;-72
2023/05/03 10:24:12;;;;;;;1.05;0.60;;;11.60;1.00;;;;;;5132424;27;20051;-72
2023/05/03 10:26:46;;;;;;;0.60;0.50;;;11.70;1.00;;;;;;5132070;27;20039;-71
2023/05/03 10:29:34;;;;;;;1.20;0.50;;;11.80;1.00;;;;;;5132229;27;20035;-72
2023/05/03 10:32:04;;;;;;;1.05;0.45;;;11.80;1.00;;;;;;5132185;27;20073;-72
2023/05/03 10:34:34;;;;;;;1.73;0.60;;;11.80;1.00;;;;;;5132423;27;20047;-72
2023/05/03 10:37:02;;;;;;;1.73;0.70;;;11.90;1.00;;;;;;5132045;27;20043;-71
2023/05/03 10:39:30;;;;;;;1.40;0.65;;;11.90;1.00;;;;;;5132099;27;20047;-71
2023/05/03 10:42:04;;;;;;;1.42;0.50;;;12.00;1.00;;;;;;5131745;27;20042;-71
2023/05/03 10:44:47;;;;;;;1.42;0.40;;;11.90;1.00;;;;;;5132288;27;20043;-71
2023/05/03 10:47:18;;;;;;;2.53;0.70;;;12.10;1.00;;;;;;5131093;27;20490;-71
2023/05/03 10:49:44;;;;;;;1.33;0.52;;;12.10;1.00;;;;;;5131748;27;20043;-72
2023/05/03 10:52:38;;;;;;;1.70;0.40;;;12.10;1.00;;;;;;5131762;27;20428;-71
2023/05/03 10:55:18;;;;;;;0.95;0.50;;;12.10;1.00;;;;;;5131569;27;20497;-71
2023/05/03 10:57:46;;;;;;;1.75;0.60;;;12.30;1.00;;;;;;5133076;27;20480;-72
2023/05/03 11:00:13;;;;;;;1.30;0.50;;;12.30;1.00;;;;;;5131644;27;20035;-72
2023/05/03 11:02:56;;;;;;;0.98;0.50;;;12.30;1.00;;;;;;5131374;27;20050;-72
2023/05/03 11:05:24;;;;;;;4.00;0.77;;;12.30;1.00;;;;;;5131423;27;20047;-72
2023/05/03 11:07:49;;;;;;;2.35;0.68;;;12.30;1.00;;;;;;5131498;27;20051;-72
2023/05/03 11:10:18;;;;;;;1.92;0.68;;;12.10;1.00;;;;;;5114293;27;20043;-72
2023/05/03 11:12:45;;;;;;;1.67;0.65;;;12.10;1.00;;;;;;5131277;27;20080;-71
2023/05/03 11:15:11;;;;;;;2.38;0.60;;;12.10;1.00;;;;;;5131010;27;20482;-72
2023/05/03 11:17:37;;;;;;;;;;;12.30;1.00;;;;;;5132001;27;20405;-72
2023/05/03 11:20:08;;;;;;;1.43;0.50;;;12.50;1.00;;;;;;5134391;27;19915;-72
2023/05/03 11:22:35;;;;;;;1.13;0.52;;;12.60;1.00;;;;;;5122950;27;20046;-72
2023/05/03 11:25:01;;;;;;;2.10;0.90;;;12.50;1.00;;;;;;5128776;27;20076;-69
2023/05/03 11:27:27;;;;;;;1.02;0.43;;;12.30;99.90;;;;;;5124119;27;20047;-70
2023/05/03 11:29:57;;;;;;;3.60;1.00;;;12.10;99.90;;;;;;5128174;27;20047;-70
2023/05/03 11:32:29;;;;;;;1.63;0.55;;;12.20;99.90;;;;;;5124107;27;20467;-70
2023/05/03 11:34:55;;;;;;;1.00;0.63;;;12.40;1.00;;;;;;5141355;27;20485;-70
2023/05/03 11:37:21;;;;;;;1.13;0.60;;;12.70;99.90;;;;;;5126179;27;20054;-70
2023/05/03 11:39:47;;;;;;;2.22;0.70;;;13.00;99.90;;;;;;5117001;27;20043;-69
2023/05/03 11:42:12;;;;;;;2.67;0.82;;;13.30;1.00;;;;;;5123601;27;20047;-70
2023/05/03 11:44:38;;;;;;;3.25;0.93;;;13.30;99.90;;;;;;5108709;27;20132;-70
2023/05/03 11:47:05;;;;;;;2.63;0.95;;;13.20;99.90;;;;;;5125735;27;20475;-70
2023/05/03 11:49:30;;;;;;;2.10;0.75;;;12.90;99.90;;;;;;5121648;27;20047;-70
2023/05/03 11:51:56;;;;;;;1.73;0.55;;;12.80;99.90;;;;;;5111751;27;20043;-72
2023/05/03 11:54:23;;;;;;;3.65;1.00;;;13.00;99.90;;;;;;5129762;27;20047;-72
2023/05/03 11:56:50;;;;;;;2.90;1.05;;;13.00;1.00;;;;;;5104561;27;20396;-71
2023/05/03 11:59:16;;;;;;;2.13;0.90;;;12.80;1.00;;;;;;5112127;27;20443;-70
2023/05/03 12:01:42;;;;;;;1.08;0.68;;;13.40;1.00;;;;;;5115282;27;20039;-71
2023/05/03 12:04:08;;;;;;;3.05;0.90;;;13.70;1.00;;;;;;5122827;27;20043;-71
2023/05/03 12:06:35;;;;;;;4.88;1.30;;;13.80;99.90;;;;;;5138930;27;20103;-69
2023/05/03 12:09:03;;;;;;;2.25;0.95;;;13.10;99.90;;;;;;5124857;27;20035;-69
2023/05/03 12:11:28;;;;;;;4.45;1.20;;;12.80;1.00;;;;;;5120813;27;20088;-69
2023/05/03 12:13:59;;;;;;;4.40;1.17;;;12.70;1.00;;;;;;5132132;27;20035;-70
2023/05/03 12:16:26;;;;;;;2.72;0.98;;;12.50;1.00;;;;;;5125978;27;20050;-69
2023/05/03 12:19:01;;;;;;;3.15;1.25;;;12.40;1.00;;;;;;5138568;27;20043;-69
2023/05/03 12:21:45;;;;;;;2.85;1.08;;;12.30;1.00;;;;;;5111798;27;20054;-69
2023/05/03 12:24:11;;;;;;;3.17;1.10;;;12.30;1.00;;;;;;5127888;27;20046;-69
2023/05/03 12:26:37;;;;;;;1.55;0.77;;;12.50;1.00;;;;;;5125572;27;20047;-69
2023/05/03 12:29:02;;;;;;;2.10;0.90;;;12.70;1.00;;;;;;5126544;27;20034;-69
2023/05/03 12:31:29;;;;;;;1.48;0.80;;;12.60;1.00;;;;;;5130630;27;20475;-68
2023/05/03 12:33:55;;;;;;;1.23;0.75;;;12.60;1.00;;;;;;5109058;27;20031;-68
2023/05/03 12:36:20;;;;;;;1.98;0.80;;;12.80;1.00;;;;;;5136194;27;20043;-69
2023/05/03 12:38:47;;;;;;;1.98;0.73;;;12.80;1.00;;;;;;5112485;27;20362;-69
2023/05/03 12:41:13;;;;;;;;;;;13.00;99.90;;;;;;5129706;27;20062;-69
2023/05/03 12:43:39;;;;;;;2.95;0.80;;;13.20;99.90;;;;;;5129958;27;19980;-69
2023/05/03 12:46:05;;;;;;;2.60;1.00;;;13.10;1.00;;;;;;5095468;28;20081;-69
2023/05/03 12:48:31;;;;;;;1.15;0.60;;;12.80;99.90;;;;;;5112032;28;20050;-69
2023/05/03 12:50:56;;;;;;;1.73;1.00;;;12.90;99.90;;;;;;5112407;28;20056;-69
2023/05/03 12:53:23;;;;;;;4.07;0.90;;;12.90;1.00;;;;;;5129852;28;20054;-69
2023/05/03 12:55:50;;;;;;;2.83;0.95;;;13.10;1.00;;;;;;5129741;28;20450;-69
2023/05/03 12:58:17;;;;;;;2.33;0.93;;;13.00;99.90;;;;;;5129507;28;20066;-69
2023/05/03 13:00:46;;;;;;;1.90;0.70;;;12.80;99.90;;;;;;5129772;27;20182;-69